Time;durP1;ratioP1;P1;durP2;ratioP2;P2;SDS_P1;SDS_P2;PMS_P1;PMS_P2;Temp;Humidity;BMP_temperature;BMP_pressure;BME280_temperature;BME280_humidity;BME280_pressure;Samples;Min_cycle;Max_cycle;Signal;HPM_P1;HPM_P2
2022/08/01 00:01:49;;;;;;;17.90;11.32;;;;;;;-150.27;100.00;61272.81;5263881;28;20097;-69
2022/08/01 00:04:20;;;;;;;12.47;9.83;;;;;;;-150.27;100.00;61272.81;5247962;28;20171;-69
2022/08/01 00:06:52;;;;;;;11.57;9.40;;;;;;;-150.27;100.00;61272.81;5249115;28;20041;-69
2022/08/01 00:09:23;;;;;;;13.20;9.60;;;;;;;-150.27;100.00;61272.81;5248530;28;20029;-70
2022/08/01 00:11:54;;;;;;;11.67;9.70;;;;;;;-150.27;100.00;61272.81;5248421;28;20025;-69
2022/08/01 00:14:26;;;;;;;14.70;10.30;;;;;;;-150.27;100.00;61272.81;5248616;28;20075;-69
2022/08/01 00:16:58;;;;;;;12.17;10.13;;;;;;;-150.27;100.00;61272.81;5247016;28;20025;-69
2022/08/01 00:19:29;;;;;;;16.07;11.67;;;;;;;-150.27;100.00;61272.81;5247689;28;20039;-69
2022/08/01 00:22:01;;;;;;;17.60;10.47;;;;;;;-150.27;100.00;61272.81;5247376;28;20068;-69
2022/08/01 00:24:32;;;;;;;18.53;12.10;;;;;;;-150.27;100.00;61272.81;5246732;28;20033;-69
2022/08/01 00:27:03;;;;;;;16.40;11.87;;;;;;;-150.27;100.00;61272.81;5247970;28;20025;-69
2022/08/01 00:29:35;;;;;;;14.60;11.30;;;;;;;-150.27;100.00;61272.81;5248128;28;20511;-69
2022/08/01 00:32:06;;;;;;;14.60;11.97;;;;;;;-150.27;100.00;61272.81;5247275;28;20044;-71
2022/08/01 00:34:38;;;;;;;18.90;11.87;;;;;;;-150.27;100.00;61272.81;5245967;28;20537;-69
2022/08/01 00:37:09;;;;;;;12.57;10.87;;;;;;;-150.27;100.00;61272.81;5248213;28;20068;-68
2022/08/01 00:39:40;;;;;;;17.43;12.47;;;;;;;-150.27;100.00;61272.81;5246055;28;20033;-73
2022/08/01 00:42:12;;;;;;;16.90;12.77;;;;;;;-150.27;100.00;61272.81;5247446;28;20029;-69
2022/08/01 00:44:44;;;;;;;17.47;12.70;;;;;;;-150.27;100.00;61272.81;5247284;28;20128;-70
2022/08/01 00:47:15;;;;;;;14.87;11.47;;;;;;;-150.27;100.00;61272.81;5246735;28;20104;-69
2022/08/01 00:49:46;;;;;;;21.40;12.38;;;;;;;-150.27;100.00;61272.81;5247772;28;20099;-70
2022/08/01 00:52:18;;;;;;;20.30;12.83;;;;;;;-150.27;100.00;61272.81;5246009;28;20021;-70
2022/08/01 00:54:50;;;;;;;20.50;13.33;;;;;;;-150.27;100.00;61272.81;5246597;28;20051;-69
2022/08/01 00:57:21;;;;;;;20.10;13.90;;;;;;;-150.27;100.00;61272.81;5250390;28;20029;-69
2022/08/01 00:59:52;;;;;;;16.77;12.53;;;;;;;-150.27;100.00;61272.81;5247808;28;20037;-69
2022/08/01 01:02:23;;;;;;;19.90;13.30;;;;;;;-150.27;100.00;61272.81;5246062;28;20083;-69
2022/08/01 01:04:55;;;;;;;22.83;15.20;;;;;;;-150.27;100.00;61272.81;5246928;28;20401;-69
2022/08/01 01:07:42;;;;;;;26.07;14.87;;;;;;;-150.27;100.00;61272.81;5247007;28;20052;-69
2022/08/01 01:10:32;;;;;;;19.37;13.50;;;;;;;-150.27;100.00;61272.81;5243140;23;20060;-69
2022/08/01 01:13:40;;;;;;;24.97;14.93;;;;;;;-150.27;100.00;61272.81;5239608;28;20033;-69
2022/08/01 01:16:15;;;;;;;18.93;14.43;;;;;;;-150.27;100.00;61272.81;5247150;28;20036;-69
2022/08/01 01:19:00;;;;;;;23.53;15.90;;;;;;;-150.27;100.00;61272.81;5246607;28;20309;-69
2022/08/01 01:21:45;;;;;;;22.10;14.83;;;;;;;-150.27;100.00;61272.81;5248151;28;20031;-69
2022/08/01 01:24:31;;;;;;;21.50;15.87;;;;;;;-150.27;100.00;61272.81;5247102;28;20515;-69
2022/08/01 01:27:23;;;;;;;22.03;15.23;;;;;;;-150.27;100.00;61272.81;5233126;28;20033;-69
2022/08/01 01:29:57;;;;;;;18.93;14.93;;;;;;;-150.27;100.00;61272.81;5249659;28;20777;-69
2022/08/01 01:32:35;;;;;;;17.20;14.57;;;;;;;-150.27;100.00;61272.81;5250943;28;20044;-69
2022/08/01 01:35:28;;;;;;;20.00;13.93;;;;;;;-150.27;100.00;61272.81;5251114;28;20082;-69
2022/08/01 01:38:13;;;;;;;17.93;14.17;;;;;;;-150.27;100.00;61272.81;5239281;28;20029;-69
2022/08/01 01:40:47;;;;;;;19.33;14.73;;;;;;;-150.27;100.00;61272.81;5251361;28;20028;-69
2022/08/01 01:43:20;;;;;;;17.52;12.88;;;;;;;-150.27;100.00;61272.81;5250216;28;20071;-69
2022/08/01 01:45:52;;;;;;;21.00;12.40;;;;;;;-150.27;100.00;61272.81;5251050;28;20028;-69
2022/08/01 01:48:24;;;;;;;16.60;12.87;;;;;;;-150.27;100.00;61272.81;5250215;28;20357;-69
2022/08/01 01:50:56;;;;;;;16.17;12.68;;;;;;;-150.27;100.00;61272.81;5250735;28;20025;-69
2022/08/01 01:53:29;;;;;;;18.23;13.10;;;;;;;-150.27;100.00;61272.81;5251686;28;20028;-69
2022/08/01 01:56:03;;;;;;;15.52;13.20;;;;;;;-150.27;100.00;61272.81;5250265;28;20539;-69
2022/08/01 01:58:35;;;;;;;16.50;12.23;;;;;;;-150.27;100.00;61272.81;5251322;28;20045;-69
2022/08/01 02:01:07;;;;;;;14.02;11.57;;;;;;;-150.27;100.00;61272.81;5253136;28;20033;-71
2022/08/01 02:03:41;;;;;;;13.20;11.63;;;;;;;-150.27;100.00;61272.81;5251420;28;20040;-69
2022/08/01 02:06:14;;;;;;;13.38;11.20;;;;;;;-150.27;100.00;61272.81;5253241;28;20495;-68
2022/08/01 02:08:47;;;;;;;13.27;10.93;;;;;;;-150.27;100.00;61272.81;5251630;28;20056;-69
2022/08/01 02:11:21;;;;;;;15.17;11.63;;;;;;;-150.27;100.00;61272.81;5249946;28;20073;-70
2022/08/01 02:13:58;;;;;;;16.97;11.97;;;;;;;-150.27;100.00;61272.81;5251243;28;20071;-69
2022/08/01 02:16:34;;;;;;;14.47;11.10;;;;;;;-150.27;100.00;61272.81;5250040;28;20059;-69
2022/08/01 02:19:06;;;;;;;16.60;11.30;;;;;;;-150.27;100.00;61272.81;5250008;28;20490;-69
2022/08/01 02:21:45;;;;;;;17.13;12.57;;;;;;;-150.27;100.00;61272.81;5250326;28;20131;-69
2022/08/01 02:24:34;;;;;;;15.87;11.87;;;;;;;-150.27;100.00;61272.81;5250708;28;20379;-70
2022/08/01 02:27:12;;;;;;;12.77;11.37;;;;;;;-150.27;100.00;61272.81;5249287;28;20163;-69
2022/08/01 02:29:55;;;;;;;14.23;11.53;;;;;;;-150.27;100.00;61272.81;5251161;28;20029;-69
2022/08/01 02:32:51;;;;;;;16.67;11.57;;;;;;;-150.27;100.00;61272.81;5248662;28;20387;-69
2022/08/01 02:35:32;;;;;;;14.23;12.00;;;;;;;-150.27;100.00;61272.81;5249826;28;20120;-69
2022/08/01 02:38:06;;;;;;;14.73;12.60;;;;;;;-150.27;100.00;61272.81;5248533;28;20040;-69
2022/08/01 02:40:41;;;;;;;19.02;12.73;;;;;;;-150.27;100.00;61272.81;5249889;28;20048;-68
2022/08/01 02:43:18;;;;;;;16.83;13.57;;;;;;;-150.27;100.00;61272.81;5249734;28;20055;-69
2022/08/01 02:45:54;;;;;;;16.90;13.13;;;;;;;-150.27;100.00;61272.81;5250409;28;20021;-69
2022/08/01 02:48:26;;;;;;;17.30;12.88;;;;;;;-150.27;100.00;61272.81;5247122;28;20430;-69
2022/08/01 02:51:00;;;;;;;17.10;12.30;;;;;;;-150.27;100.00;61272.81;5249485;28;20495;-69
2022/08/01 02:53:36;;;;;;;16.88;12.88;;;;;;;-150.27;100.00;61272.81;5249738;28;20036;-69
2022/08/01 02:56:10;;;;;;;14.77;13.13;;;;;;;-150.27;100.00;61272.81;5249861;28;20491;-69
2022/08/01 02:58:43;;;;;;;16.20;12.87;;;;;;;-150.27;100.00;61272.81;5248460;28;20025;-70
2022/08/01 03:01:16;;;;;;;19.73;14.18;;;;;;;-150.27;100.00;61272.81;5252029;28;20029;-68
2022/08/01 03:03:48;;;;;;;16.73;13.70;;;;;;;-150.27;100.00;61272.81;5250594;28;20052;-68
2022/08/01 03:06:19;;;;;;;16.20;14.50;;;;;;;-150.27;100.00;61272.81;5249720;28;20029;-69
2022/08/01 03:08:52;;;;;;;16.20;13.63;;;;;;;-150.27;100.00;61272.81;5253909;28;20032;-68
2022/08/01 03:11:26;;;;;;;16.90;13.07;;;;;;;-150.27;100.00;61272.81;5249974;28;20131;-69
2022/08/01 03:14:00;;;;;;;;;;;;;;;-150.27;100.00;61272.81;5248994;28;20664;-69
2022/08/01 03:16:34;;;;;;;16.83;13.80;;;;;;;-150.27;100.00;61272.81;5248606;28;20040;-69
2022/08/01 03:19:09;;;;;;;17.80;14.27;;;;;;;-150.27;100.00;61272.81;5249202;28;20036;-69
2022/08/01 03:21:43;;;;;;;17.17;14.55;;;;;;;-150.27;100.00;61272.81;5250846;28;20368;-69
2022/08/01 03:24:16;;;;;;;25.15;15.35;;;;;;;-150.27;100.00;61272.81;5250363;28;20810;-69
2022/08/01 03:26:48;;;;;;;20.87;16.10;;;;;;;-150.27;100.00;61272.81;5249377;28;20036;-69
2022/08/01 03:29:25;;;;;;;17.90;15.07;;;;;;;-150.27;100.00;61272.81;5248328;28;20357;-69
2022/08/01 03:31:58;;;;;;;20.40;14.80;;;;;;;-150.27;100.00;61272.81;5247949;28;20033;-69
2022/08/01 03:34:29;;;;;;;18.17;14.63;;;;;;;-150.27;100.00;61272.81;5248834;28;20495;-69
2022/08/01 03:37:14;;;;;;;17.93;14.97;;;;;;;-150.27;100.00;61272.81;5249568;28;20048;-68
2022/08/01 03:39:55;;;;;;;18.70;14.27;;;;;;;-150.27;100.00;61272.81;5231408;28;20028;-69
2022/08/01 03:42:32;;;;;;;20.20;16.90;;;;;;;-150.27;100.00;61272.81;5249205;28;20491;-68
2022/08/01 03:45:09;;;;;;;23.53;16.53;;;;;;;-150.27;100.00;61272.81;5249046;28;20119;-68
2022/08/01 03:47:45;;;;;;;22.13;16.17;;;;;;;-150.27;100.00;61272.81;5246169;28;20474;-70
2022/08/01 03:50:22;;;;;;;20.02;16.13;;;;;;;-150.27;100.00;61272.81;5248887;28;20049;-68
2022/08/01 03:52:57;;;;;;;18.53;16.13;;;;;;;-150.27;100.00;61272.81;5251895;28;20025;-69
2022/08/01 03:55:31;;;;;;;21.10;15.60;;;;;;;-150.27;100.00;61272.81;5248265;28;20391;-69
2022/08/01 03:58:04;;;;;;;18.23;15.93;;;;;;;-150.27;100.00;61272.81;5232781;28;20116;-69
2022/08/01 04:00:39;;;;;;;21.02;16.35;;;;;;;-150.27;100.00;61272.81;5231086;28;20111;-69
2022/08/01 04:03:12;;;;;;;20.97;16.30;;;;;;;-150.27;100.00;61272.81;5247631;28;20060;-69
2022/08/01 04:05:44;;;;;;;20.98;15.20;;;;;;;-150.27;100.00;61272.81;5247303;28;20025;-69
2022/08/01 04:08:15;;;;;;;19.30;15.48;;;;;;;-150.27;100.00;61272.81;5248402;28;20013;-69
2022/08/01 04:10:46;;;;;;;21.47;15.67;;;;;;;-150.27;100.00;61272.81;5248793;28;20037;-69
2022/08/01 04:13:18;;;;;;;18.27;16.33;;;;;;;-150.27;100.00;61272.81;5248887;28;20037;-69
2022/08/01 04:15:49;;;;;;;18.47;15.80;;;;;;;-150.27;100.00;61272.81;5248682;28;20036;-69
2022/08/01 04:18:20;;;;;;;19.07;14.50;;;;;;;-150.27;100.00;61272.81;5245865;28;20496;-69
2022/08/01 04:20:52;;;;;;;16.27;14.48;;;;;;;-150.27;100.00;61272.81;5248410;28;20538;-69
2022/08/01 04:23:25;;;;;;;18.33;15.27;;;;;;;-150.27;100.00;61272.81;5247758;28;20028;-69
2022/08/01 04:25:59;;;;;;;16.88;14.90;;;;;;;-150.27;100.00;61272.81;5248460;28;20039;-69
2022/08/01 04:28:34;;;;;;;17.33;14.23;;;;;;;-150.27;100.00;61272.81;5247939;28;20286;-69
2022/08/01 04:31:11;;;;;;;23.03;15.07;;;;;;;-150.27;100.00;61272.81;5248805;28;20471;-69
2022/08/01 04:33:50;;;;;;;20.00;15.75;;;;;;;-150.27;100.00;61272.81;5248169;28;20029;-69
2022/08/01 04:36:25;;;;;;;24.83;16.07;;;;;;;-150.27;100.00;61272.81;5248455;28;20552;-68
2022/08/01 04:39:00;;;;;;;18.53;14.57;;;;;;;-150.27;100.00;61272.81;5230590;28;20032;-69
2022/08/01 04:41:33;;;;;;;20.47;15.87;;;;;;;-150.27;100.00;61272.81;5246766;28;20151;-69
2022/08/01 04:44:04;;;;;;;23.60;16.77;;;;;;;-150.27;100.00;61272.81;5247495;28;20078;-68
2022/08/01 04:46:37;;;;;;;22.40;16.23;;;;;;;-150.27;100.00;61272.81;5245979;28;20476;-69
2022/08/01 04:49:11;;;;;;;21.90;16.53;;;;;;;-150.27;100.00;61272.81;5248616;28;20025;-69
2022/08/01 04:51:57;;;;;;;21.42;15.23;;;;;;;-150.27;100.00;61272.81;5247947;28;20074;-69
2022/08/01 04:54:30;;;;;;;25.50;15.73;;;;;;;-150.27;100.00;61272.81;5248846;28;20025;-69
2022/08/01 04:57:02;;;;;;;19.83;15.57;;;;;;;-150.27;100.00;61272.81;5248970;28;20025;-69
2022/08/01 04:59:39;;;;;;;25.43;16.03;;;;;;;-150.27;100.00;61272.81;5248609;28;20025;-69
2022/08/01 05:02:14;;;;;;;19.03;14.87;;;;;;;-150.27;100.00;61272.81;5251463;28;20024;-70
2022/08/01 05:04:46;;;;;;;19.20;15.10;;;;;;;-150.27;100.00;61272.81;5251147;28;20092;-69
2022/08/01 05:07:17;;;;;;;20.07;15.37;;;;;;;-150.27;100.00;61272.81;5250730;28;20056;-69
2022/08/01 05:09:48;;;;;;;22.43;14.67;;;;;;;-150.27;100.00;61272.81;5254084;28;20053;-68
2022/08/01 05:12:20;;;;;;;19.20;15.90;;;;;;;-150.27;100.00;61272.81;5253329;28;20545;-69
2022/08/01 05:14:51;;;;;;;21.50;15.37;;;;;;;-150.27;100.00;61272.81;5251864;28;20070;-69
2022/08/01 05:17:23;;;;;;;21.57;14.00;;;;;;;-150.27;100.00;61272.81;5250816;28;20047;-69
2022/08/01 05:19:54;;;;;;;18.65;14.02;;;;;;;-150.27;100.00;61272.81;5250836;28;20029;-69
2022/08/01 05:22:25;;;;;;;16.53;12.77;;;;;;;-150.27;100.00;61272.81;5251536;28;20071;-69
2022/08/01 05:24:56;;;;;;;18.07;13.03;;;;;;;-150.27;100.00;61272.81;5253202;28;20121;-69
2022/08/01 05:27:28;;;;;;;19.73;13.40;;;;;;;-150.27;100.00;61272.81;5233824;28;20033;-69
2022/08/01 05:29:59;;;;;;;19.43;13.07;;;;;;;-150.27;100.00;61272.81;5251811;28;20033;-69
2022/08/01 05:32:31;;;;;;;20.98;13.95;;;;;;;-150.27;100.00;61272.81;5250828;28;20032;-69
2022/08/01 05:35:03;;;;;;;15.05;11.27;;;;;;;-150.27;100.00;61272.81;5252366;28;20025;-68
2022/08/01 05:37:34;;;;;;;15.67;11.13;;;;;;;-150.27;100.00;61272.81;5254180;28;20035;-69
2022/08/01 05:40:06;;;;;;;15.90;11.63;;;;;;;-150.27;100.00;61272.81;5232365;28;20041;-68
2022/08/01 05:42:37;;;;;;;18.40;11.43;;;;;;;-150.27;100.00;61272.81;5251982;28;20122;-69
2022/08/01 05:45:10;;;;;;;15.33;10.10;;;;;;;-150.27;100.00;61272.81;5252969;28;20379;-69
2022/08/01 05:47:41;;;;;;;12.82;9.43;;;;;;;-150.27;100.00;61272.81;5232119;28;20097;-69
2022/08/01 05:50:13;;;;;;;13.20;10.13;;;;;;;-150.27;100.00;61272.81;5252885;28;20029;-69
2022/08/01 05:52:44;;;;;;;13.63;8.73;;;;;;;-150.27;100.00;61272.81;5251770;28;20024;-69
2022/08/01 05:55:15;;;;;;;11.98;8.95;;;;;;;-150.27;100.00;61272.81;5250622;28;20037;-69
2022/08/01 05:57:46;;;;;;;14.45;8.90;;;;;;;-150.27;100.00;61272.81;5251272;28;20021;-69
2022/08/01 06:00:18;;;;;;;12.20;8.30;;;;;;;-150.27;100.00;61272.81;5248763;28;20032;-69
2022/08/01 06:02:49;;;;;;;11.53;9.13;;;;;;;-150.27;100.00;61272.81;5250534;28;20025;-69
2022/08/01 06:05:20;;;;;;;10.93;7.85;;;;;;;-150.27;100.00;61272.81;5251487;28;20025;-69
2022/08/01 06:07:52;;;;;;;10.90;8.90;;;;;;;-150.27;100.00;61272.81;5250587;28;20028;-69
2022/08/01 06:10:23;;;;;;;11.45;8.52;;;;;;;-150.27;100.00;61272.81;5250656;28;20041;-69
2022/08/01 06:12:55;;;;;;;12.52;8.55;;;;;;;-150.27;100.00;61272.81;5251232;28;20032;-69
2022/08/01 06:15:26;;;;;;;10.77;8.13;;;;;;;-150.27;100.00;61272.81;5250230;28;20569;-69
2022/08/01 06:17:57;;;;;;;11.40;7.87;;;;;;;-150.27;100.00;61272.81;5231963;28;20047;-69
2022/08/01 06:20:29;;;;;;;9.30;7.38;;;;;;;-150.27;100.00;61272.81;5251873;28;20056;-69
2022/08/01 06:23:00;;;;;;;7.07;5.87;;;;;;;-150.27;100.00;61272.81;5249714;28;20048;-69
2022/08/01 06:25:31;;;;;;;8.70;6.53;;;;;;;-150.27;100.00;61272.81;5251234;28;20119;-69
2022/08/01 06:28:03;;;;;;;6.95;5.95;;;;;;;-150.27;100.00;61272.81;5250837;28;20090;-69
2022/08/01 06:30:34;;;;;;;6.57;5.88;;;;;;;-150.27;100.00;61272.81;5250551;28;20106;-69
2022/08/01 06:33:06;;;;;;;8.77;5.97;;;;;;;-150.27;100.00;61272.81;5249918;28;20582;-69
2022/08/01 06:35:37;;;;;;;7.03;5.03;;;;;;;-150.27;100.00;61272.81;5249798;28;20025;-69
2022/08/01 06:38:08;;;;;;;5.05;4.40;;;;;;;-150.27;100.00;61272.81;5248593;28;20028;-69
2022/08/01 06:40:40;;;;;;;6.88;4.82;;;;;;;-150.27;100.00;61272.81;5250681;28;20037;-69
2022/08/01 06:43:11;;;;;;;5.13;4.35;;;;;;;-150.27;100.00;61272.81;5233181;28;20040;-70
2022/08/01 06:45:42;;;;;;;7.10;4.45;;;;;;;-150.27;100.00;61272.81;5250655;28;20125;-69
2022/08/01 06:48:14;;;;;;;5.82;4.03;;;;;;;-150.27;100.00;61272.81;5250850;28;20021;-70
2022/08/01 06:50:45;;;;;;;5.53;3.95;;;;;;;-150.27;100.00;61272.81;5249955;28;20403;-70
2022/08/01 06:53:16;;;;;;;5.90;4.53;;;;;;;-150.27;100.00;61272.81;5231812;28;20507;-69
2022/08/01 06:55:48;;;;;;;7.25;3.95;;;;;;;-150.27;100.00;61272.81;5249692;28;20399;-70
2022/08/01 06:58:19;;;;;;;5.15;3.72;;;;;;;-150.27;100.00;61272.81;5248257;28;20690;-69
2022/08/01 07:00:50;;;;;;;5.50;3.78;;;;;;;-150.27;100.00;61272.81;5249593;28;20538;-69
2022/08/01 07:03:21;;;;;;;5.13;3.50;;;;;;;-150.27;100.00;61272.81;5248333;28;20475;-69
2022/08/01 07:05:53;;;;;;;5.07;3.33;;;;;;;-150.27;100.00;61272.81;5250638;28;20391;-70
2022/08/01 07:08:24;;;;;;;4.43;2.70;;;;;;;-150.27;100.00;61272.81;5248863;28;20116;-69
2022/08/01 07:10:58;;;;;;;6.07;2.95;;;;;;;-150.27;100.00;61272.81;5248802;28;20131;-69
2022/08/01 07:13:30;;;;;;;4.88;2.50;;;;;;;-150.27;100.00;61272.81;5249800;28;20118;-69
2022/08/01 07:16:02;;;;;;;4.53;2.53;;;;;;;-150.27;100.00;61272.81;5249475;28;20017;-69
2022/08/01 07:18:33;;;;;;;3.25;2.22;;;;;;;-150.27;100.00;61272.81;5248515;28;20025;-70
2022/08/01 07:21:04;;;;;;;3.08;1.75;;;;;;;-150.27;100.00;61272.81;5249521;28;20049;-69
2022/08/01 07:23:36;;;;;;;2.58;1.65;;;;;;;-150.27;100.00;61272.81;5248540;28;20037;-69
2022/08/01 07:26:07;;;;;;;4.10;2.03;;;;;;;-150.27;100.00;61272.81;5248140;28;20078;-69
2022/08/01 07:28:38;;;;;;;3.70;2.22;;;;;;;-150.27;100.00;61272.81;5249254;28;20115;-69
2022/08/01 07:31:09;;;;;;;5.07;2.10;;;;;;;-150.27;100.00;61272.81;5248688;28;20061;-69
2022/08/01 07:33:41;;;;;;;3.70;1.90;;;;;;;-150.27;100.00;61272.81;5249549;28;20033;-69
2022/08/01 07:36:12;;;;;;;4.57;1.65;;;;;;;-150.27;100.00;61272.81;5248682;28;20064;-69
2022/08/01 07:38:44;;;;;;;6.43;2.00;;;;;;;-150.27;100.00;61272.81;5246917;28;20037;-69
2022/08/01 07:41:15;;;;;;;5.18;1.65;;;;;;;-150.27;100.00;61272.81;5247337;28;20086;-69
2022/08/01 07:43:48;;;;;;;5.82;2.00;;;;;;;-150.27;100.00;61272.81;5249212;28;20495;-69
2022/08/01 07:46:20;;;;;;;2.47;1.60;;;;;;;-150.27;100.00;61272.81;5247189;28;20051;-68
2022/08/01 07:48:51;;;;;;;5.00;1.70;;;;;;;-150.27;100.00;61272.81;5249109;28;20107;-69
2022/08/01 07:51:22;;;;;;;2.45;1.48;;;;;;;-150.27;100.00;61272.81;5248469;28;20025;-69
2022/08/01 07:53:53;;;;;;;3.00;2.13;;;;;;;-150.27;100.00;61272.81;5248333;28;20096;-69
2022/08/01 07:56:26;;;;;;;3.88;1.67;;;;;;;-150.27;100.00;61272.81;5247642;28;20024;-69
2022/08/01 07:58:57;;;;;;;3.13;1.80;;;;;;;-150.27;100.00;61272.81;5230537;28;20021;-69
2022/08/01 08:01:28;;;;;;;1.77;1.50;;;;;;;-150.27;100.00;61272.81;5247347;28;20496;-69
2022/08/01 08:03:59;;;;;;;3.20;1.17;;;;;;;-150.27;100.00;61272.81;5248962;28;20064;-69
2022/08/01 08:06:31;;;;;;;4.00;1.38;;;;;;;-150.27;100.00;61272.81;5246327;28;20049;-69
2022/08/01 08:09:02;;;;;;;2.53;1.50;;;;;;;-150.27;100.00;61272.81;5241820;28;20267;-69
2022/08/01 08:11:34;;;;;;;1.45;1.00;;;;;;;-150.27;100.00;61272.81;5244748;28;20037;-69
2022/08/01 08:14:05;;;;;;;2.72;1.30;;;;;;;-150.27;100.00;61272.81;5244829;28;20044;-71
2022/08/01 08:16:36;;;;;;;3.35;1.65;;;;;;;-150.27;100.00;61272.81;5224992;28;20136;-70
2022/08/01 08:19:08;;;;;;;2.03;1.40;;;;;;;-150.27;100.00;61272.81;5242929;28;20035;-69
2022/08/01 08:21:39;;;;;;;2.47;1.40;;;;;;;-150.27;100.00;61272.81;5241215;28;20044;-71
2022/08/01 08:24:19;;;;;;;2.53;1.40;;;;;;;-150.27;100.00;61272.81;5226528;28;20103;-70
2022/08/01 08:26:57;;;;;;;4.72;1.50;;;;;;;-150.27;100.00;61272.81;5235424;28;20036;-69
2022/08/01 08:29:32;;;;;;;1.67;0.88;;;;;;;-150.27;100.00;61272.81;5218058;28;20036;-70
2022/08/01 08:32:03;;;;;;;0.88;0.80;;;;;;;-150.27;100.00;61272.81;5235711;28;20032;-69
2022/08/01 08:34:35;;;;;;;1.88;1.00;;;;;;;-150.27;100.00;61272.81;5236241;28;20418;-70
2022/08/01 08:37:07;;;;;;;1.83;1.30;;;;;;;-150.27;100.00;61272.81;5239864;28;20101;-69
2022/08/01 08:39:38;;;;;;;1.42;0.77;;;;;;;-150.27;100.00;61272.81;5239908;28;20044;-68
2022/08/01 08:42:11;;;;;;;8.38;1.55;;;;;;;-150.27;100.00;61272.81;5235067;28;20167;-69
2022/08/01 08:44:42;;;;;;;2.28;1.20;;;;;;;-150.27;100.00;61272.81;5237129;28;20037;-69
2022/08/01 08:47:15;;;;;;;3.60;0.88;;;;;;;-150.27;100.00;61272.81;5219367;28;20058;-70
2022/08/01 08:49:47;;;;;;;1.75;0.90;;;;;;;-150.27;100.00;61272.81;5235932;28;20044;-70
2022/08/01 08:52:19;;;;;;;1.30;0.80;;;;;;;-150.27;100.00;61272.81;5238471;28;20033;-70
2022/08/01 08:54:52;;;;;;;2.30;0.90;;;;;;;-150.27;100.00;61272.81;5237916;28;20083;-70
2022/08/01 08:57:23;;;;;;;2.83;0.55;;;;;;;-150.27;100.00;61272.81;5237563;28;21211;-69
2022/08/01 08:59:55;;;;;;;0.60;0.60;;;;;;;-150.27;100.00;61272.81;5220239;28;20025;-69
2022/08/01 09:02:26;;;;;;;3.30;0.75;;;;;;;-150.27;100.00;61272.81;5237208;28;20033;-68
2022/08/01 09:04:58;;;;;;;3.25;0.73;;;;;;;-150.27;100.00;61272.81;5222126;28;20044;-69
2022/08/01 09:07:29;;;;;;;1.98;0.60;;;;;;;-150.27;100.00;61272.81;5239723;28;20269;-68
2022/08/01 09:10:01;;;;;;;2.88;0.60;;;;;;;-150.27;100.00;61272.81;5238138;28;20124;-68
2022/08/01 09:12:32;;;;;;;0.90;0.50;;;;;;;-150.27;100.00;61272.81;5240005;28;20045;-68
2022/08/01 09:15:03;;;;;;;1.70;0.60;;;;;;;-150.27;100.00;61272.81;5239352;28;20047;-68
2022/08/01 09:17:41;;;;;;;2.03;0.65;;;;;;;-150.27;100.00;61272.81;5247233;28;20028;-67
2022/08/01 09:20:23;;;;;;;0.60;0.52;;;;;;;-150.27;100.00;61272.81;5249608;28;20032;-67
2022/08/01 09:22:54;;;;;;;1.50;0.40;;;;;;;-150.27;100.00;61272.81;5220873;28;20029;-69
2022/08/01 09:25:32;;;;;;;2.97;0.60;;;;;;;-150.27;100.00;61272.81;5250695;28;20037;-71
2022/08/01 09:28:05;;;;;;;1.15;0.40;;;;;;;-150.27;100.00;61272.81;5248098;28;20037;-69
2022/08/01 09:30:38;;;;;;;;;;;;;;;-150.27;100.00;61272.81;5251001;28;20537;-73
2022/08/01 09:33:10;;;;;;;5.00;0.77;;;;;;;-150.27;100.00;61272.81;5250617;28;20011;-72
2022/08/01 09:35:44;;;;;;;0.60;0.45;;;;;;;-150.27;100.00;61272.81;5248172;28;20159;-71
2022/08/01 09:38:21;;;;;;;2.25;0.63;;;;;;;-150.27;100.00;61272.81;5237202;28;20027;-71
2022/08/01 09:40:53;;;;;;;1.38;0.70;;;;;;;-150.27;100.00;61272.81;5249785;28;20037;-71
2022/08/01 09:43:27;;;;;;;3.00;0.73;;;;;;;-150.27;100.00;61272.81;5247288;28;20027;-71
2022/08/01 09:46:00;;;;;;;0.65;0.43;;;;;;;-150.27;100.00;61272.81;5247731;28;20025;-71
2022/08/01 09:48:32;;;;;;;1.38;0.47;;;;;;;-150.27;100.00;61272.81;5249887;28;20116;-71
2022/08/01 09:51:03;;;;;;;0.82;0.40;;;;;;;-150.27;100.00;61272.81;5251765;28;20025;-71
2022/08/01 09:53:46;;;;;;;0.50;0.50;;;;;;;-150.27;100.00;61272.81;5250501;28;20490;-71
2022/08/01 09:56:18;;;;;;;0.95;0.40;;;;;;;-150.27;100.00;61272.81;5251163;28;20025;-71
2022/08/01 09:58:54;;;;;;;2.35;0.50;;;;;;;-150.27;100.00;61272.81;5233081;28;20021;-70
2022/08/01 10:01:26;;;;;;;9.25;0.82;;;;;;;-150.27;100.00;61272.81;5249536;28;20051;-71
2022/08/01 10:04:09;;;;;;;1.35;0.50;;;;;;;-150.27;100.00;61272.81;5251073;28;20079;-71
2022/08/01 10:06:43;;;;;;;7.57;1.60;;;;;;;-150.27;100.00;61272.81;5250594;28;20017;-72
2022/08/01 10:09:25;;;;;;;0.43;0.40;;;;;;;-150.27;100.00;61272.81;5250603;28;20576;-71
2022/08/01 10:11:58;;;;;;;1.85;0.50;;;;;;;-150.27;100.00;61272.81;5251040;28;20763;-71
2022/08/01 10:14:30;;;;;;;;;;;;;;;-150.27;100.00;61272.81;5251473;28;20554;-71
2022/08/01 10:17:03;;;;;;;1.27;0.40;;;;;;;-150.27;100.00;61272.81;5249921;28;19958;-71
2022/08/01 10:19:36;;;;;;;0.50;0.50;;;;;;;-150.27;100.00;61272.81;5251151;28;20488;-71
2022/08/01 10:22:08;;;;;;;;;;;;;;;-150.27;100.00;61272.81;5233386;28;20029;-71
2022/08/01 10:24:40;;;;;;;3.92;0.95;;;;;;;-150.27;100.00;61272.81;5251082;28;20378;-71
2022/08/01 10:27:14;;;;;;;0.60;0.43;;;;;;;-150.27;100.00;61272.81;5250244;28;20068;-72
2022/08/01 10:29:56;;;;;;;1.83;0.60;;;;;;;-150.27;100.00;61272.81;5250900;28;20158;-71
2022/08/01 10:32:28;;;;;;;0.82;0.57;;;;;;;-150.27;100.00;61272.81;5249406;28;20028;-71
2022/08/01 10:35:00;;;;;;;3.92;1.20;;;;;;;-150.27;100.00;61272.81;5251096;28;20807;-71
2022/08/01 10:37:33;;;;;;;7.05;1.00;;;;;;;-150.27;100.00;61272.81;5233106;28;20071;-71
2022/08/01 10:40:06;;;;;;;;;;;;;;;-150.27;100.00;61272.81;5251191;28;20100;-71
2022/08/01 10:42:40;;;;;;;1.88;0.80;;;;;;;-150.27;100.00;61272.81;5250331;28;20714;-71
2022/08/01 10:45:15;;;;;;;1.60;1.13;;;;;;;-150.27;100.00;61272.81;5249831;28;20031;-71
2022/08/01 10:48:05;;;;;;;4.90;0.95;;;;;;;-150.27;100.00;61272.81;5250407;28;20024;-71
2022/08/01 10:50:46;;;;;;;1.05;0.80;;;;;;;-150.27;100.00;61272.81;5250225;28;20029;-70
2022/08/01 10:53:23;;;;;;;0.90;0.77;;;;;;;-150.27;100.00;61272.81;5249989;28;20024;-70
2022/08/01 10:56:00;;;;;;;2.40;1.00;;;;;;;-150.27;100.00;61272.81;5251329;28;20084;-71
2022/08/01 10:58:37;;;;;;;1.48;0.68;;;;;;;-150.27;100.00;61272.81;5248560;28;20096;-71
2022/08/01 11:01:14;;;;;;;4.50;0.80;;;;;;;-150.27;100.00;61272.81;5249623;28;20029;-71
2022/08/01 11:04:00;;;;;;;1.83;0.60;;;;;;;-150.27;100.00;61272.81;5249999;28;20025;-71
2022/08/01 11:06:34;;;;;;;1.08;0.57;;;;;;;-150.27;100.00;61272.81;5250098;28;20425;-71
2022/08/01 11:09:20;;;;;;;2.45;0.70;;;;;;;-150.27;100.00;61272.81;5231947;28;20029;-71
2022/08/01 11:12:09;;;;;;;1.13;0.70;;;;;;;-150.27;100.00;61272.81;5250374;28;20045;-71
2022/08/01 11:14:59;;;;;;;3.70;0.85;;;;;;;-150.27;100.00;61272.81;5249523;28;20033;-72
2022/08/01 11:17:35;;;;;;;1.80;0.65;;;;;;;-150.27;100.00;61272.81;5230475;28;20224;-71
2022/08/01 11:20:18;;;;;;;1.77;0.70;;;;;;;30.55;42.52;101761.94;5330636;27;20394;-71
2022/08/01 11:22:59;;;;;;;2.05;0.68;;;;;;;30.72;42.33;101758.03;5363268;27;20054;-71
2022/08/01 11:25:33;;;;;;;1.02;0.63;;;;;;;30.54;42.40;101757.56;5330452;27;20027;-71
2022/08/01 11:28:15;;;;;;;2.50;0.90;;;;;;;30.95;41.76;101764.94;5328885;28;20024;-71
2022/08/01 11:30:48;;;;;;;1.48;0.63;;;;;;;30.55;41.55;101761.09;5328317;27;20031;-71
2022/08/01 11:33:39;;;;;;;2.80;0.77;;;;;;;31.40;40.96;101756.19;5328872;28;20026;-71